sensor_id;sensor_type;location;lat;lon;timestamp;pressure;altitude;pressure_sealevel;temperature;humidity
38197;BME280;26543;51.976;4.616;2023-09-18T00:02:17;52662.78;;;-140.72;100.00
38197;BME280;26543;51.976;4.616;2023-09-18T00:04:42;52650.59;;;-140.72;100.00
38197;BME280;26543;51.976;4.616;2023-09-18T00:07:08;52666.84;;;-140.72;100.00
38197;BME280;26543;51.976;4.616;2023-09-18T00:09:42;52638.41;;;-140.72;100.00
38197;BME280;26543;51.976;4.616;2023-09-18T00:12:07;52634.38;;;-140.72;100.00
38197;BME280;26543;51.976;4.616;2023-09-18T00:14:34;52650.59;;;-140.72;100.00
38197;BME280;26543;51.976;4.616;2023-09-18T00:16:59;52630.31;;;-140.72;100.00
38197;BME280;26543;51.976;4.616;2023-09-18T00:19:25;52658.72;;;-140.72;100.00
38197;BME280;26543;51.976;4.616;2023-09-18T00:21:50;52650.59;;;-140.72;100.00
38197;BME280;26543;51.976;4.616;2023-09-18T00:24:17;52626.25;;;-140.72;100.00
38197;BME280;26543;51.976;4.616;2023-09-18T00:26:42;52662.78;;;-140.72;100.00
38197;BME280;26543;51.976;4.616;2023-09-18T00:29:08;52636.38;;;-140.72;100.00
38197;BME280;26543;51.976;4.616;2023-09-18T00:31:33;52648.56;;;-140.72;100.00
38197;BME280;26543;51.976;4.616;2023-09-18T00:33:58;52642.47;;;-140.72;100.00
38197;BME280;26543;51.976;4.616;2023-09-18T00:36:23;52618.13;;;-140.72;100.00
38197;BME280;26543;51.976;4.616;2023-09-18T00:38:49;52640.44;;;-140.72;100.00
38197;BME280;26543;51.976;4.616;2023-09-18T00:41:14;52640.44;;;-140.72;100.00
38197;BME280;26543;51.976;4.616;2023-09-18T00:43:39;52662.78;;;-140.72;100.00
38197;BME280;26543;51.976;4.616;2023-09-18T00:46:04;52658.72;;;-140.72;100.00
38197;BME280;26543;51.976;4.616;2023-09-18T00:48:30;52670.88;;;-140.72;100.00
38197;BME280;26543;51.976;4.616;2023-09-18T00:50:55;52648.56;;;-140.72;100.00
38197;BME280;26543;51.976;4.616;2023-09-18T00:56:17;52642.47;;;-140.72;100.00
38197;BME280;26543;51.976;4.616;2023-09-18T00:58:45;52668.84;;;-140.72;100.00
38197;BME280;26543;51.976;4.616;2023-09-18T01:01:10;52662.78;;;-140.72;100.00
38197;BME280;26543;51.976;4.616;2023-09-18T01:03:36;52614.06;;;-140.72;100.00
38197;BME280;26543;51.976;4.616;2023-09-18T01:06:01;52640.44;;;-140.72;100.00
38197;BME280;26543;51.976;4.616;2023-09-18T01:08:40;52658.72;;;-140.72;100.00
38197;BME280;26543;51.976;4.616;2023-09-18T01:11:12;52648.56;;;-140.72;100.00
38197;BME280;26543;51.976;4.616;2023-09-18T01:13:51;52676.97;;;-140.72;100.00
38197;BME280;26543;51.976;4.616;2023-09-18T01:16:27;52646.53;;;-140.72;100.00
38197;BME280;26543;51.976;4.616;2023-09-18T01:18:57;52674.94;;;-140.72;100.00
38197;BME280;26543;51.976;4.616;2023-09-18T01:24:24;52674.94;;;-140.72;100.00
38197;BME280;26543;51.976;4.616;2023-09-18T01:26:50;52656.69;;;-140.72;100.00
38197;BME280;26543;51.976;4.616;2023-09-18T01:29:15;52642.47;;;-140.72;100.00
38197;BME280;26543;51.976;4.616;2023-09-18T01:31:49;52650.59;;;-140.72;100.00
38197;BME280;26543;51.976;4.616;2023-09-18T01:34:16;52644.50;;;-140.72;100.00
38197;BME280;26543;51.976;4.616;2023-09-18T01:36:53;52652.63;;;-140.72;100.00
38197;BME280;26543;51.976;4.616;2023-09-18T01:39:18;52654.66;;;-140.72;100.00
38197;BME280;26543;51.976;4.616;2023-09-18T01:41:45;52654.66;;;-140.72;100.00
38197;BME280;26543;51.976;4.616;2023-09-18T01:44:10;52648.56;;;-140.72;100.00
38197;BME280;26543;51.976;4.616;2023-09-18T01:46:36;52681.03;;;-140.72;100.00
38197;BME280;26543;51.976;4.616;2023-09-18T01:49:04;52666.84;;;-140.72;100.00
38197;BME280;26543;51.976;4.616;2023-09-18T01:51:29;52676.97;;;-140.72;100.00
38197;BME280;26543;51.976;4.616;2023-09-18T01:53:55;52640.44;;;-140.72;100.00
38197;BME280;26543;51.976;4.616;2023-09-18T01:56:20;52638.41;;;-140.72;100.00
38197;BME280;26543;51.976;4.616;2023-09-18T01:58:45;52664.81;;;-140.72;100.00
38197;BME280;26543;51.976;4.616;2023-09-18T02:01:11;52660.75;;;-140.72;100.00
38197;BME280;26543;51.976;4.616;2023-09-18T02:03:36;52618.13;;;-140.72;100.00
38197;BME280;26543;51.976;4.616;2023-09-18T02:06:01;52638.41;;;-140.72;100.00
38197;BME280;26543;51.976;4.616;2023-09-18T02:11:29;52664.81;;;-140.72;100.00
38197;BME280;26543;51.976;4.616;2023-09-18T02:13:54;52638.41;;;-140.72;100.00
38197;BME280;26543;51.976;4.616;2023-09-18T02:16:19;52630.31;;;-140.72;100.00
38197;BME280;26543;51.976;4.616;2023-09-18T02:18:49;52672.91;;;-140.72;100.00
38197;BME280;26543;51.976;4.616;2023-09-18T02:21:20;52620.16;;;-140.72;100.00
38197;BME280;26543;51.976;4.616;2023-09-18T02:23:48;52658.72;;;-140.72;100.00
38197;BME280;26543;51.976;4.616;2023-09-18T02:26:14;52642.47;;;-140.72;100.00
38197;BME280;26543;51.976;4.616;2023-09-18T02:28:39;52670.88;;;-140.72;100.00
38197;BME280;26543;51.976;4.616;2023-09-18T02:31:04;52691.19;;;-140.72;100.00
38197;BME280;26543;51.976;4.616;2023-09-18T02:33:29;52642.47;;;-140.72;100.00
38197;BME280;26543;51.976;4.616;2023-09-18T02:35:54;52656.69;;;-140.72;100.00
38197;BME280;26543;51.976;4.616;2023-09-18T02:38:20;52630.31;;;-140.72;100.00
38197;BME280;26543;51.976;4.616;2023-09-18T02:40:45;52648.56;;;-140.72;100.00
38197;BME280;26543;51.976;4.616;2023-09-18T02:43:10;52650.59;;;-140.72;100.00
38197;BME280;26543;51.976;4.616;2023-09-18T02:45:35;52662.78;;;-140.72;100.00
38197;BME280;26543;51.976;4.616;2023-09-18T02:48:00;52634.38;;;-140.72;100.00
38197;BME280;26543;51.976;4.616;2023-09-18T02:50:43;52683.06;;;-140.72;100.00
38197;BME280;26543;51.976;4.616;2023-09-18T02:53:16;52658.72;;;-140.72;100.00
38197;BME280;26543;51.976;4.616;2023-09-18T02:58:41;52654.66;;;-140.72;100.00
38197;BME280;26543;51.976;4.616;2023-09-18T03:01:06;52630.31;;;-140.72;100.00
38197;BME280;26543;51.976;4.616;2023-09-18T03:03:32;52699.31;;;-140.72;100.00
38197;BME280;26543;51.976;4.616;2023-09-18T03:06:01;52640.44;;;-140.72;100.00
38197;BME280;26543;51.976;4.616;2023-09-18T03:08:27;52650.59;;;-140.72;100.00
38197;BME280;26543;51.976;4.616;2023-09-18T03:10:52;52662.78;;;-140.72;100.00
38197;BME280;26543;51.976;4.616;2023-09-18T03:13:17;52654.66;;;-140.72;100.00
38197;BME280;26543;51.976;4.616;2023-09-18T03:15:45;52642.47;;;-140.72;100.00
38197;BME280;26543;51.976;4.616;2023-09-18T03:18:13;52664.81;;;-140.72;100.00
38197;BME280;26543;51.976;4.616;2023-09-18T03:20:39;52723.66;;;-140.72;100.00
38197;BME280;26543;51.976;4.616;2023-09-18T03:23:04;52674.94;;;-140.72;100.00
38197;BME280;26543;51.976;4.616;2023-09-18T03:25:29;52703.34;;;-140.72;100.00
38197;BME280;26543;51.976;4.616;2023-09-18T03:27:56;52644.50;;;-140.72;100.00
38197;BME280;26543;51.976;4.616;2023-09-18T03:30:22;52670.88;;;-140.72;100.00
38197;BME280;26543;51.976;4.616;2023-09-18T03:32:51;52658.72;;;-140.72;100.00
38197;BME280;26543;51.976;4.616;2023-09-18T03:35:17;52670.88;;;-140.72;100.00
38197;BME280;26543;51.976;4.616;2023-09-18T03:37:44;52652.63;;;-140.72;100.00
38197;BME280;26543;51.976;4.616;2023-09-18T03:40:09;52664.81;;;-140.72;100.00
38197;BME280;26543;51.976;4.616;2023-09-18T03:42:34;52638.41;;;-140.72;100.00
38197;BME280;26543;51.976;4.616;2023-09-18T03:45:00;52636.38;;;-140.72;100.00
38197;BME280;26543;51.976;4.616;2023-09-18T03:47:25;52656.69;;;-140.72;100.00
38197;BME280;26543;51.976;4.616;2023-09-18T03:49:50;52648.56;;;-140.72;100.00
38197;BME280;26543;51.976;4.616;2023-09-18T03:52:16;52644.50;;;-140.72;100.00
38197;BME280;26543;51.976;4.616;2023-09-18T03:54:41;52650.59;;;-140.72;100.00
38197;BME280;26543;51.976;4.616;2023-09-18T03:57:06;52662.78;;;-140.72;100.00
38197;BME280;26543;51.976;4.616;2023-09-18T03:59:31;52644.50;;;-140.72;100.00
38197;BME280;26543;51.976;4.616;2023-09-18T04:01:56;52646.53;;;-140.72;100.00
38197;BME280;26543;51.976;4.616;2023-09-18T04:04:22;52601.91;;;-140.72;100.00
38197;BME280;26543;51.976;4.616;2023-09-18T04:06:47;52670.88;;;-140.72;100.00
38197;BME280;26543;51.976;4.616;2023-09-18T04:09:12;52646.53;;;-140.72;100.00
38197;BME280;26543;51.976;4.616;2023-09-18T04:11:40;52658.72;;;-140.72;100.00
38197;BME280;26543;51.976;4.616;2023-09-18T04:14:05;52648.56;;;-140.72;100.00
38197;BME280;26543;51.976;4.616;2023-09-18T04:16:30;52654.66;;;-140.72;100.00
38197;BME280;26543;51.976;4.616;2023-09-18T04:19:04;52691.19;;;-140.72;100.00
38197;BME280;26543;51.976;4.616;2023-09-18T04:21:29;52640.44;;;-140.72;100.00
38197;BME280;26543;51.976;4.616;2023-09-18T04:23:58;52628.28;;;-140.72;100.00
38197;BME280;26543;51.976;4.616;2023-09-18T04:26:27;52630.31;;;-140.72;100.00
38197;BME280;26543;51.976;4.616;2023-09-18T04:29:04;52642.47;;;-140.72;100.00
38197;BME280;26543;51.976;4.616;2023-09-18T04:31:30;52630.31;;;-140.72;100.00
38197;BME280;26543;51.976;4.616;2023-09-18T04:33:56;52636.38;;;-140.72;100.00
38197;BME280;26543;51.976;4.616;2023-09-18T04:36:21;52636.38;;;-140.72;100.00
38197;BME280;26543;51.976;4.616;2023-09-18T04:38:46;52648.56;;;-140.72;100.00
38197;BME280;26543;51.976;4.616;2023-09-18T04:41:11;52648.56;;;-140.72;100.00
38197;BME280;26543;51.976;4.616;2023-09-18T04:43:37;52658.72;;;-140.72;100.00
38197;BME280;26543;51.976;4.616;2023-09-18T04:46:03;52638.41;;;-140.72;100.00
38197;BME280;26543;51.976;4.616;2023-09-18T04:48:30;52666.84;;;-140.72;100.00
38197;BME280;26543;51.976;4.616;2023-09-18T04:50:55;52634.38;;;-140.72;100.00
38197;BME280;26543;51.976;4.616;2023-09-18T04:53:20;52646.53;;;-140.72;100.00
38197;BME280;26543;51.976;4.616;2023-09-18T04:55:46;52616.09;;;-140.72;100.00
38197;BME280;26543;51.976;4.616;2023-09-18T04:58:14;52664.81;;;-140.72;100.00
38197;BME280;26543;51.976;4.616;2023-09-18T05:00:40;52644.50;;;-140.72;100.00
38197;BME280;26543;51.976;4.616;2023-09-18T05:03:06;52676.97;;;-140.72;100.00
38197;BME280;26543;51.976;4.616;2023-09-18T05:05:33;52654.66;;;-140.72;100.00
38197;BME280;26543;51.976;4.616;2023-09-18T05:07:58;52638.41;;;-140.72;100.00
38197;BME280;26543;51.976;4.616;2023-09-18T05:10:23;52610.00;;;-140.72;100.00
38197;BME280;26543;51.976;4.616;2023-09-18T05:12:49;52652.63;;;-140.72;100.00
38197;BME280;26543;51.976;4.616;2023-09-18T05:15:15;52668.84;;;-140.72;100.00
38197;BME280;26543;51.976;4.616;2023-09-18T05:17:47;52658.72;;;-140.72;100.00
38197;BME280;26543;51.976;4.616;2023-09-18T05:20:16;52644.50;;;-140.72;100.00
38197;BME280;26543;51.976;4.616;2023-09-18T05:22:42;52638.41;;;-140.72;100.00
38197;BME280;26543;51.976;4.616;2023-09-18T05:25:11;52668.84;;;-140.72;100.00
38197;BME280;26543;51.976;4.616;2023-09-18T05:27:37;52656.69;;;-140.72;100.00
38197;BME280;26543;51.976;4.616;2023-09-18T05:30:09;52658.72;;;-140.72;100.00
38197;BME280;26543;51.976;4.616;2023-09-18T05:32:35;52674.94;;;-140.72;100.00
38197;BME280;26543;51.976;4.616;2023-09-18T05:35:00;52654.66;;;-140.72;100.00
38197;BME280;26543;51.976;4.616;2023-09-18T05:37:30;52660.75;;;-140.72;100.00
38197;BME280;26543;51.976;4.616;2023-09-18T05:39:55;52654.66;;;-140.72;100.00
38197;BME280;26543;51.976;4.616;2023-09-18T05:42:20;52679.00;;;-140.72;100.00
38197;BME280;26543;51.976;4.616;2023-09-18T05:44:46;52676.97;;;-140.72;100.00
38197;BME280;26543;51.976;4.616;2023-09-18T05:47:11;52660.75;;;-140.72;100.00
38197;BME280;26543;51.976;4.616;2023-09-18T05:49:37;52676.97;;;-140.72;100.00
38197;BME280;26543;51.976;4.616;2023-09-18T05:52:03;52658.72;;;-140.72;100.00
38197;BME280;26543;51.976;4.616;2023-09-18T05:54:28;52658.72;;;-140.72;100.00
38197;BME280;26543;51.976;4.616;2023-09-18T05:56:53;52679.00;;;-140.72;100.00
38197;BME280;26543;51.976;4.616;2023-09-18T05:59:19;52658.72;;;-140.72;100.00
38197;BME280;26543;51.976;4.616;2023-09-18T06:01:45;52703.34;;;-140.72;100.00
38197;BME280;26543;51.976;4.616;2023-09-18T06:04:10;52666.84;;;-140.72;100.00
38197;BME280;26543;51.976;4.616;2023-09-18T06:06:35;52672.91;;;-140.72;100.00
38197;BME280;26543;51.976;4.616;2023-09-18T06:09:00;52654.66;;;-140.72;100.00
38197;BME280;26543;51.976;4.616;2023-09-18T06:11:26;52666.84;;;-140.72;100.00
38197;BME280;26543;51.976;4.616;2023-09-18T06:13:51;52654.66;;;-140.72;100.00
38197;BME280;26543;51.976;4.616;2023-09-18T06:16:16;52672.91;;;-140.72;100.00
38197;BME280;26543;51.976;4.616;2023-09-18T06:18:41;52687.13;;;-140.72;100.00
38197;BME280;26543;51.976;4.616;2023-09-18T06:21:07;52683.06;;;-140.72;100.00
38197;BME280;26543;51.976;4.616;2023-09-18T06:23:32;52648.56;;;-140.72;100.00
38197;BME280;26543;51.976;4.616;2023-09-18T06:25:58;52626.25;;;-140.72;100.00
38197;BME280;26543;51.976;4.616;2023-09-18T06:28:24;52654.66;;;-140.72;100.00
38197;BME280;26543;51.976;4.616;2023-09-18T06:30:49;52656.69;;;-140.72;100.00
38197;BME280;26543;51.976;4.616;2023-09-18T06:33:14;52648.56;;;-140.72;100.00
38197;BME280;26543;51.976;4.616;2023-09-18T06:35:40;52650.59;;;-140.72;100.00
38197;BME280;26543;51.976;4.616;2023-09-18T06:38:06;52683.06;;;-140.72;100.00
38197;BME280;26543;51.976;4.616;2023-09-18T06:40:32;52679.00;;;-140.72;100.00
38197;BME280;26543;51.976;4.616;2023-09-18T06:43:00;52658.72;;;-140.72;100.00
38197;BME280;26543;51.976;4.616;2023-09-18T06:45:25;52664.81;;;-140.72;100.00
38197;BME280;26543;51.976;4.616;2023-09-18T06:47:51;52660.75;;;-140.72;100.00
38197;BME280;26543;51.976;4.616;2023-09-18T06:50:18;52672.91;;;-140.72;100.00
38197;BME280;26543;51.976;4.616;2023-09-18T06:52:43;52634.38;;;-140.72;100.00
38197;BME280;26543;51.976;4.616;2023-09-18T06:55:09;52666.84;;;-140.72;100.00
38197;BME280;26543;51.976;4.616;2023-09-18T06:57:34;52679.00;;;-140.72;100.00
38197;BME280;26543;51.976;4.616;2023-09-18T07:00:01;52612.03;;;-140.72;100.00
38197;BME280;26543;51.976;4.616;2023-09-18T07:02:26;52672.91;;;-140.72;100.00
38197;BME280;26543;51.976;4.616;2023-09-18T07:04:52;52691.19;;;-140.72;100.00
38197;BME280;26543;51.976;4.616;2023-09-18T07:07:17;52660.75;;;-140.72;100.00
38197;BME280;26543;51.976;4.616;2023-09-18T07:09:49;52674.94;;;-140.72;100.00
38197;BME280;26543;51.976;4.616;2023-09-18T07:12:15;52630.31;;;-140.72;100.00
38197;BME280;26543;51.976;4.616;2023-09-18T07:14:40;52674.94;;;-140.72;100.00
38197;BME280;26543;51.976;4.616;2023-09-18T07:17:05;52646.53;;;-140.72;100.00
38197;BME280;26543;51.976;4.616;2023-09-18T07:22:20;52691.19;;;-140.72;100.00
38197;BME280;26543;51.976;4.616;2023-09-18T07:24:45;52674.94;;;-140.72;100.00
38197;BME280;26543;51.976;4.616;2023-09-18T07:29:47;52683.06;;;-140.72;100.00
38197;BME280;26543;51.976;4.616;2023-09-18T07:35:02;52652.63;;;-140.72;100.00
38197;BME280;26543;51.976;4.616;2023-09-18T07:37:30;52648.56;;;-140.72;100.00
38197;BME280;26543;51.976;4.616;2023-09-18T07:39:55;52642.47;;;-140.72;100.00
38197;BME280;26543;51.976;4.616;2023-09-18T07:42:23;52679.00;;;-140.72;100.00
38197;BME280;26543;51.976;4.616;2023-09-18T07:44:48;52670.88;;;-140.72;100.00
38197;BME280;26543;51.976;4.616;2023-09-18T07:47:13;52650.59;;;-140.72;100.00
38197;BME280;26543;51.976;4.616;2023-09-18T07:49:39;52693.22;;;-140.72;100.00
38197;BME280;26543;51.976;4.616;2023-09-18T07:52:04;52674.94;;;-140.72;100.00
38197;BME280;26543;51.976;4.616;2023-09-18T07:54:29;52683.06;;;-140.72;100.00
38197;BME280;26543;51.976;4.616;2023-09-18T07:56:54;52674.94;;;-140.72;100.00
38197;BME280;26543;51.976;4.616;2023-09-18T07:59:20;52693.22;;;-140.72;100.00
38197;BME280;26543;51.976;4.616;2023-09-18T08:01:45;52654.66;;;-140.72;100.00
38197;BME280;26543;51.976;4.616;2023-09-18T08:04:10;52662.78;;;-140.72;100.00
38197;BME280;26543;51.976;4.616;2023-09-18T08:06:35;52648.56;;;-140.72;100.00
38197;BME280;26543;51.976;4.616;2023-09-18T08:09:01;52660.75;;;-140.72;100.00
38197;BME280;26543;51.976;4.616;2023-09-18T08:11:26;52670.88;;;-140.72;100.00
38197;BME280;26543;51.976;4.616;2023-09-18T08:13:51;52656.69;;;-140.72;100.00
38197;BME280;26543;51.976;4.616;2023-09-18T08:16:16;52650.59;;;-140.72;100.00
38197;BME280;26543;51.976;4.616;2023-09-18T08:18:42;52642.47;;;-140.72;100.00
38197;BME280;26543;51.976;4.616;2023-09-18T08:21:08;52681.03;;;-140.72;100.00
38197;BME280;26543;51.976;4.616;2023-09-18T08:23:34;52630.31;;;-140.72;100.00
38197;BME280;26543;51.976;4.616;2023-09-18T08:26:00;52622.19;;;-140.72;100.00
38197;BME280;26543;51.976;4.616;2023-09-18T08:28:26;52614.06;;;-140.72;100.00
38197;BME280;26543;51.976;4.616;2023-09-18T08:30:51;52595.81;;;-140.72;100.00
38197;BME280;26543;51.976;4.616;2023-09-18T08:33:16;52614.06;;;-140.72;100.00
38197;BME280;26543;51.976;4.616;2023-09-18T08:35:41;52601.91;;;-140.72;100.00
38197;BME280;26543;51.976;4.616;2023-09-18T08:38:07;52601.91;;;-140.72;100.00
38197;BME280;26543;51.976;4.616;2023-09-18T08:40:33;52589.72;;;-140.72;100.00
38197;BME280;26543;51.976;4.616;2023-09-18T08:42:58;52581.59;;;-140.72;100.00
38197;BME280;26543;51.976;4.616;2023-09-18T08:48:00;52603.94;;;-140.72;100.00
38197;BME280;26543;51.976;4.616;2023-09-18T08:50:25;52640.44;;;-140.72;100.00
38197;BME280;26543;51.976;4.616;2023-09-18T08:52:51;52603.94;;;-140.72;100.00
38197;BME280;26543;51.976;4.616;2023-09-18T08:55:17;52581.59;;;-140.72;100.00
38197;BME280;26543;51.976;4.616;2023-09-18T08:57:42;52628.28;;;-140.72;100.00
38197;BME280;26543;51.976;4.616;2023-09-18T09:00:09;52599.88;;;-140.72;100.00
38197;BME280;26543;51.976;4.616;2023-09-18T09:02:36;52607.97;;;-140.72;100.00
38197;BME280;26543;51.976;4.616;2023-09-18T09:05:02;52559.28;;;-140.72;100.00
38197;BME280;26543;51.976;4.616;2023-09-18T09:07:27;52644.50;;;-140.72;100.00
38197;BME280;26543;51.976;4.616;2023-09-18T09:09:55;52650.59;;;-140.72;100.00
38197;BME280;26543;51.976;4.616;2023-09-18T09:12:46;52591.75;;;-140.72;100.00
38197;BME280;26543;51.976;4.616;2023-09-18T09:15:11;52597.84;;;-140.72;100.00
38197;BME280;26543;51.976;4.616;2023-09-18T09:17:36;52644.50;;;-140.72;100.00
38197;BME280;26543;51.976;4.616;2023-09-18T09:20:11;52573.50;;;-140.72;100.00
38197;BME280;26543;51.976;4.616;2023-09-18T09:22:37;52575.50;;;-140.72;100.00
38197;BME280;26543;51.976;4.616;2023-09-18T09:25:03;52571.47;;;-140.72;100.00
38197;BME280;26543;51.976;4.616;2023-09-18T09:27:28;52585.66;;;-140.72;100.00
38197;BME280;26543;51.976;4.616;2023-09-18T09:29:59;52569.44;;;-140.72;100.00
38197;BME280;26543;51.976;4.616;2023-09-18T09:32:24;52593.78;;;-140.72;100.00
38197;BME280;26543;51.976;4.616;2023-09-18T09:34:56;52561.31;;;-140.72;100.00
38197;BME280;26543;51.976;4.616;2023-09-18T09:37:29;52557.25;;;-140.72;100.00
38197;BME280;26543;51.976;4.616;2023-09-18T09:39:55;52616.09;;;-140.72;100.00
38197;BME280;26543;51.976;4.616;2023-09-18T09:42:20;52595.81;;;-140.72;100.00
38197;BME280;26543;51.976;4.616;2023-09-18T09:45:01;52534.94;;;-140.72;100.00
38197;BME280;26543;51.976;4.616;2023-09-18T09:47:31;52541.03;;;-140.72;100.00
38197;BME280;26543;51.976;4.616;2023-09-18T09:49:56;52528.84;;;-140.72;100.00
38197;BME280;26543;51.976;4.616;2023-09-18T09:52:21;52534.94;;;-140.72;100.00
38197;BME280;26543;51.976;4.616;2023-09-18T09:54:47;52506.53;;;-140.72;100.00
38197;BME280;26543;51.976;4.616;2023-09-18T09:57:12;52563.34;;;-140.72;100.00
38197;BME280;26543;51.976;4.616;2023-09-18T09:59:40;52528.84;;;-140.72;100.00
38197;BME280;26543;51.976;4.616;2023-09-18T10:02:09;52451.72;;;-140.72;100.00
38197;BME280;26543;51.976;4.616;2023-09-18T10:04:37;52480.16;;;-140.72;100.00
38197;BME280;26543;51.976;4.616;2023-09-18T10:07:06;52463.91;;;-140.72;100.00
38197;BME280;26543;51.976;4.616;2023-09-18T10:09:32;52478.13;;;-140.72;100.00
38197;BME280;26543;51.976;4.616;2023-09-18T10:11:59;52398.97;;;-140.72;100.00
38197;BME280;26543;51.976;4.616;2023-09-18T10:14:30;52429.41;;;-140.72;100.00
38197;BME280;26543;51.976;4.616;2023-09-18T10:16:56;52423.31;;;-140.72;100.00
38197;BME280;26543;51.976;4.616;2023-09-18T10:19:27;52368.53;;;-140.72;100.00
38197;BME280;26543;51.976;4.616;2023-09-18T10:22:38;52358.41;;;-140.72;100.00
38197;BME280;26543;51.976;4.616;2023-09-18T10:24:46;52346.22;;;-140.72;100.00
38197;BME280;26543;51.976;4.616;2023-09-18T10:27:12;52340.13;;;-140.72;100.00
38197;BME280;26543;51.976;4.616;2023-09-18T10:29:38;52417.25;;;-140.72;100.00
38197;BME280;26543;51.976;4.616;2023-09-18T10:32:06;52463.91;;;-140.72;100.00
38197;BME280;26543;51.976;4.616;2023-09-18T10:34:34;52366.50;;;-140.72;100.00
38197;BME280;26543;51.976;4.616;2023-09-18T10:37:00;52380.72;;;-140.72;100.00
38197;BME280;26543;51.976;4.616;2023-09-18T10:39:26;52354.34;;;-140.72;100.00
38197;BME280;26543;51.976;4.616;2023-09-18T10:41:55;52352.31;;;-140.72;100.00
38197;BME280;26543;51.976;4.616;2023-09-18T10:44:26;52356.38;;;-140.72;100.00
38197;BME280;26543;51.976;4.616;2023-09-18T10:46:52;52364.47;;;-140.72;80.53
38197;BME280;26543;51.976;4.616;2023-09-18T10:49:18;52344.19;;;-140.72;48.03
38197;BME280;26543;51.976;4.616;2023-09-18T10:51:44;52279.25;;;-140.72;42.60
38197;BME280;26543;51.976;4.616;2023-09-18T10:54:11;52352.31;;;-140.72;33.07
38197;BME280;26543;51.976;4.616;2023-09-18T10:56:39;52254.91;;;-140.72;0.00
38197;BME280;26543;51.976;4.616;2023-09-18T10:59:06;52240.72;;;-140.72;0.00
38197;BME280;26543;51.976;4.616;2023-09-18T11:01:32;52382.75;;;-140.72;0.00
38197;BME280;26543;51.976;4.616;2023-09-18T11:04:06;52277.22;;;-140.72;0.00
38197;BME280;26543;51.976;4.616;2023-09-18T11:09:19;52342.16;;;-140.72;0.00
38197;BME280;26543;51.976;4.616;2023-09-18T11:11:44;52419.28;;;-140.72;49.92
38197;BME280;26543;51.976;4.616;2023-09-18T11:14:10;52463.91;;;-140.72;100.00
38197;BME280;26543;51.976;4.616;2023-09-18T11:16:36;52520.72;;;-140.72;100.00
38197;BME280;26543;51.976;4.616;2023-09-18T11:21:32;52476.09;;;-140.72;100.00
38197;BME280;26543;51.976;4.616;2023-09-18T11:23:58;52504.50;;;-140.72;100.00
38197;BME280;26543;51.976;4.616;2023-09-18T11:26:23;52496.38;;;-140.72;100.00
38197;BME280;26543;51.976;4.616;2023-09-18T11:28:49;52327.97;;;-140.72;100.00
38197;BME280;26543;51.976;4.616;2023-09-18T11:31:15;52263.03;;;-140.72;100.00
38197;BME280;26543;51.976;4.616;2023-09-18T11:33:41;52204.19;;;-140.72;100.00
38197;BME280;26543;51.976;4.616;2023-09-18T11:36:12;52192.00;;;-140.72;0.00
38197;BME280;26543;51.976;4.616;2023-09-18T11:41:23;52108.81;;;-140.72;0.00
38197;BME280;26543;51.976;4.616;2023-09-18T11:43:50;52151.44;;;-140.72;0.00
38197;BME280;26543;51.976;4.616;2023-09-18T11:46:19;52165.63;;;-140.72;0.00
38197;BME280;26543;51.976;4.616;2023-09-18T11:48:46;52110.84;;;-140.72;0.00
38197;BME280;26543;51.976;4.616;2023-09-18T11:51:12;52167.66;;;-140.72;0.00
38197;BME280;26543;51.976;4.616;2023-09-18T11:53:39;52315.78;;;-140.72;0.00
38197;BME280;26543;51.976;4.616;2023-09-18T11:56:10;52179.84;;;-140.72;0.00
38197;BME280;26543;51.976;4.616;2023-09-18T11:58:50;52338.09;;;-140.72;0.00
38197;BME280;26543;51.976;4.616;2023-09-18T12:01:18;52362.44;;;-140.72;0.00
38197;BME280;26543;51.976;4.616;2023-09-18T12:03:43;52447.69;;;-140.72;64.38
38197;BME280;26543;51.976;4.616;2023-09-18T12:06:10;52212.31;;;-140.72;84.12
38197;BME280;26543;51.976;4.616;2023-09-18T12:08:38;52273.19;;;-140.72;0.00
38197;BME280;26543;51.976;4.616;2023-09-18T12:11:06;52362.44;;;-140.72;0.00
38197;BME280;26543;51.976;4.616;2023-09-18T12:13:32;52431.44;;;-140.72;61.55
38197;BME280;26543;51.976;4.616;2023-09-18T12:15:58;52265.06;;;-140.72;59.87
38197;BME280;26543;51.976;4.616;2023-09-18T12:18:24;52285.34;;;-140.72;0.00
38197;BME280;26543;51.976;4.616;2023-09-18T12:20:50;52352.31;;;-140.72;0.00
38197;BME280;26543;51.976;4.616;2023-09-18T12:23:16;52390.84;;;-140.72;0.00
38197;BME280;26543;51.976;4.616;2023-09-18T12:25:41;52370.56;;;-140.72;0.00
38197;BME280;26543;51.976;4.616;2023-09-18T12:28:07;52366.50;;;-140.72;11.16
38197;BME280;26543;51.976;4.616;2023-09-18T12:30:33;52451.72;;;-140.72;76.23
38197;BME280;26543;51.976;4.616;2023-09-18T12:32:58;52467.97;;;-140.72;100.00
38197;BME280;26543;51.976;4.616;2023-09-18T12:35:26;52403.03;;;-140.72;100.00
38197;BME280;26543;51.976;4.616;2023-09-18T12:37:55;52279.25;;;-140.72;100.00
38197;BME280;26543;51.976;4.616;2023-09-18T12:40:21;52263.03;;;-140.72;100.00
38197;BME280;26543;51.976;4.616;2023-09-18T12:42:46;52309.69;;;-140.72;7.72
38197;BME280;26543;51.976;4.616;2023-09-18T12:45:12;52112.88;;;-140.72;0.00
38197;BME280;26543;51.976;4.616;2023-09-18T12:47:37;52070.28;;;-140.72;0.00
38197;BME280;26543;51.976;4.616;2023-09-18T12:50:04;52082.44;;;-140.72;0.00
38197;BME280;26543;51.976;4.616;2023-09-18T12:52:31;52297.53;;;-140.72;0.00
38197;BME280;26543;51.976;4.616;2023-09-18T12:54:57;52281.28;;;-140.72;0.00
38197;BME280;26543;51.976;4.616;2023-09-18T12:57:24;52220.41;;;-140.72;0.00
38197;BME280;26543;51.976;4.616;2023-09-18T12:59:49;52269.13;;;-140.72;15.01
38197;BME280;26543;51.976;4.616;2023-09-18T13:02:19;52252.88;;;-140.72;26.22